Lucas Gonzalez, Argentina
Current Conditions -  °F | °C
As of 11:00 PM on Monday 20 Oct 2014 (Local Time) from SAAR Reporting Station
Clear Clear  
Wind Chill: 68°   Ceiling: Unl
Heat Index: 68°   Visibility: 6mi
Dew Point: 59°   Wind: 7mph
Humidity: 73%   Direction: 50°NE
Pressure: 30.09"   Gusts: NA
Location:  32.4°S, 59.55°W
Report Text: SAAR 210200Z 05006KT CAVOK 20/15 Q1019
Loading
Personal Weather Stations






























Interactive Weather Map
Tropical Storm Tracking
New forecast layout! Learn more

10-Day Weather Forecast

Advertisements
Track Severe Weather on mobile